Terminal Aerodrome Forecast
Issued by NWS Sioux Falls, SD

Home | Current Version | Previous Version | Graphics & Text | Print | Product List | Glossary Off
Versions: 1 2 3 4 5 6 7 8 9 10 11 12 13 14 15

000
FTUS43 KFSD 262320
TAFFSD
TAF
KFSD 262320Z 2700/2724 36010KT P6SM SCT045 BKN120
     FM270400 VRB03KT P6SM SCT100
     FM271700 25008KT P6SM SCT070=

USA.gov is the U.S. government's official web portal to all federal, state and local government web resources and services.